sensor_id;sensor_type;location;lat;lon;timestamp;pressure;altitude;pressure_sealevel;temperature;humidity
35577;BME280;21680;52.400;16.920;2022-08-19T00:00:37;100120.27;;;24.89;54.14
35577;BME280;21680;52.400;16.920;2022-08-19T00:03:04;100111.87;;;24.87;54.17
35577;BME280;21680;52.400;16.920;2022-08-19T00:05:32;100105.20;;;24.89;54.23
35577;BME280;21680;52.400;16.920;2022-08-19T00:08:04;100104.68;;;24.90;54.36
35577;BME280;21680;52.400;16.920;2022-08-19T00:10:30;100103.13;;;24.91;54.38
35577;BME280;21680;52.400;16.920;2022-08-19T00:12:56;100101.08;;;24.93;54.40
35577;BME280;21680;52.400;16.920;2022-08-19T00:15:23;100096.62;;;24.92;54.45
35577;BME280;21680;52.400;16.920;2022-08-19T00:17:49;100105.36;;;24.92;54.50
35577;BME280;21680;52.400;16.920;2022-08-19T00:20:18;100099.02;;;24.91;54.54
35577;BME280;21680;52.400;16.920;2022-08-19T00:22:46;100093.89;;;24.88;54.55
35577;BME280;21680;52.400;16.920;2022-08-19T00:25:14;100095.08;;;24.86;54.63
35577;BME280;21680;52.400;16.920;2022-08-19T00:27:40;100091.14;;;24.88;54.67
35577;BME280;21680;52.400;16.920;2022-08-19T00:30:07;100086.00;;;24.89;54.66
35577;BME280;21680;52.400;16.920;2022-08-19T00:32:35;100100.91;;;24.95;54.74
35577;BME280;21680;52.400;16.920;2022-08-19T00:35:02;100096.14;;;25.01;54.73
35577;BME280;21680;52.400;16.920;2022-08-19T00:37:29;100091.68;;;25.04;54.65
35577;BME280;21680;52.400;16.920;2022-08-19T00:39:56;100091.00;;;25.02;54.63
35577;BME280;21680;52.400;16.920;2022-08-19T00:42:23;100089.97;;;25.03;54.71
35577;BME280;21680;52.400;16.920;2022-08-19T00:44:49;100090.65;;;25.05;54.64
35577;BME280;21680;52.400;16.920;2022-08-19T00:47:16;100101.28;;;25.04;54.65
35577;BME280;21680;52.400;16.920;2022-08-19T00:49:45;100097.68;;;25.04;54.65
35577;BME280;21680;52.400;16.920;2022-08-19T00:52:19;100094.25;;;25.06;54.64
35577;BME280;21680;52.400;16.920;2022-08-19T00:54:55;100090.30;;;25.08;54.67
35577;BME280;21680;52.400;16.920;2022-08-19T00:57:27;100081.73;;;25.03;54.59
35577;BME280;21680;52.400;16.920;2022-08-19T00:59:56;100089.11;;;24.99;54.61
35577;BME280;21680;52.400;16.920;2022-08-19T01:02:25;100092.02;;;25.01;54.76
35577;BME280;21680;52.400;16.920;2022-08-19T01:04:53;100083.11;;;25.03;54.67
35577;BME280;21680;52.400;16.920;2022-08-19T01:07:19;100081.06;;;25.01;54.71
35577;BME280;21680;52.400;16.920;2022-08-19T01:09:46;100078.48;;;25.00;54.68
35577;BME280;21680;52.400;16.920;2022-08-19T01:12:12;100074.34;;;24.96;54.72
35577;BME280;21680;52.400;16.920;2022-08-19T01:14:39;100073.15;;;24.94;54.74
35577;BME280;21680;52.400;16.920;2022-08-19T01:17:08;100080.17;;;24.92;54.79
35577;BME280;21680;52.400;16.920;2022-08-19T01:19:39;100073.83;;;24.92;54.80
35577;BME280;21680;52.400;16.920;2022-08-19T01:22:14;100070.23;;;24.87;54.84
35577;BME280;21680;52.400;16.920;2022-08-19T01:24:44;100069.04;;;24.86;54.93
35577;BME280;21680;52.400;16.920;2022-08-19T01:27:10;100070.76;;;24.83;54.90
35577;BME280;21680;52.400;16.920;2022-08-19T01:29:39;100068.02;;;24.79;54.98
35577;BME280;21680;52.400;16.920;2022-08-19T01:32:09;100065.10;;;24.84;54.97
35577;BME280;21680;52.400;16.920;2022-08-19T01:34:37;100078.30;;;24.85;55.08
35577;BME280;21680;52.400;16.920;2022-08-19T01:37:09;100066.47;;;24.88;55.07
35577;BME280;21680;52.400;16.920;2022-08-19T01:39:38;100066.47;;;24.84;55.05
35577;BME280;21680;52.400;16.920;2022-08-19T01:42:06;100056.88;;;24.84;55.08
35577;BME280;21680;52.400;16.920;2022-08-19T01:44:35;100052.08;;;24.82;55.15
35577;BME280;21680;52.400;16.920;2022-08-19T01:47:02;100049.68;;;24.83;55.18
35577;BME280;21680;52.400;16.920;2022-08-19T01:49:29;100037.69;;;24.84;55.20
35577;BME280;21680;52.400;16.920;2022-08-19T01:51:55;100039.41;;;24.81;55.18
35577;BME280;21680;52.400;16.920;2022-08-19T01:54:23;100041.98;;;24.79;55.21
35577;BME280;21680;52.400;16.920;2022-08-19T01:56:52;100034.95;;;24.76;55.23
35577;BME280;21680;52.400;16.920;2022-08-19T01:59:22;100028.27;;;24.75;55.26
35577;BME280;21680;52.400;16.920;2022-08-19T02:01:49;100031.02;;;24.71;55.32
35577;BME280;21680;52.400;16.920;2022-08-19T02:04:15;100025.88;;;24.68;55.32
35577;BME280;21680;52.400;16.920;2022-08-19T02:06:41;100031.36;;;24.64;55.40
35577;BME280;21680;52.400;16.920;2022-08-19T02:09:07;100006.87;;;24.46;55.46
35577;BME280;21680;52.400;16.920;2022-08-19T02:11:35;100034.45;;;24.56;55.50
35577;BME280;21680;52.400;16.920;2022-08-19T02:14:06;100030.34;;;24.52;55.57
35577;BME280;21680;52.400;16.920;2022-08-19T02:16:33;100028.11;;;24.48;55.64
35577;BME280;21680;52.400;16.920;2022-08-19T02:19:00;100024.00;;;24.44;55.75
35577;BME280;21680;52.400;16.920;2022-08-19T02:21:28;100022.11;;;24.40;55.85
35577;BME280;21680;52.400;16.920;2022-08-19T02:23:54;100016.63;;;24.36;55.93
35577;BME280;21680;52.400;16.920;2022-08-19T02:26:21;100013.89;;;24.36;56.02
35577;BME280;21680;52.400;16.920;2022-08-19T02:28:48;100007.22;;;24.35;56.08
35577;BME280;21680;52.400;16.920;2022-08-19T02:31:17;100009.27;;;24.33;56.17
35577;BME280;21680;52.400;16.920;2022-08-19T02:33:45;100008.92;;;24.32;56.27
35577;BME280;21680;52.400;16.920;2022-08-19T02:36:13;100003.62;;;24.30;56.28
35577;BME280;21680;52.400;16.920;2022-08-19T02:38:41;99997.97;;;24.27;56.37
35577;BME280;21680;52.400;16.920;2022-08-19T02:41:18;99993.00;;;24.27;56.46
35577;BME280;21680;52.400;16.920;2022-08-19T02:43:50;99990.09;;;24.28;56.52
35577;BME280;21680;52.400;16.920;2022-08-19T02:46:22;99997.97;;;24.32;56.57
35577;BME280;21680;52.400;16.920;2022-08-19T02:48:56;100000.70;;;24.32;56.58
35577;BME280;21680;52.400;16.920;2022-08-19T02:51:26;99998.14;;;24.30;56.63
35577;BME280;21680;52.400;16.920;2022-08-19T02:53:57;100001.39;;;24.30;56.67
35577;BME280;21680;52.400;16.920;2022-08-19T02:56:24;100000.02;;;24.30;56.69
35577;BME280;21680;52.400;16.920;2022-08-19T02:58:51;99996.42;;;24.29;56.72
35577;BME280;21680;52.400;16.920;2022-08-19T03:01:26;99989.58;;;24.29;56.73
35577;BME280;21680;52.400;16.920;2022-08-19T03:03:55;99991.46;;;24.28;56.78
35577;BME280;21680;52.400;16.920;2022-08-19T03:06:21;99988.72;;;24.28;56.86
35577;BME280;21680;52.400;16.920;2022-08-19T03:08:48;99984.27;;;24.27;56.83
35577;BME280;21680;52.400;16.920;2022-08-19T03:11:18;99983.21;;;24.24;56.92
35577;BME280;21680;52.400;16.920;2022-08-19T03:13:51;99983.72;;;24.24;56.98
35577;BME280;21680;52.400;16.920;2022-08-19T03:16:24;99987.83;;;24.24;57.02
35577;BME280;21680;52.400;16.920;2022-08-19T03:18:51;99981.16;;;24.22;57.01
35577;BME280;21680;52.400;16.920;2022-08-19T03:21:21;99971.39;;;24.16;57.04
35577;BME280;21680;52.400;16.920;2022-08-19T03:23:50;99970.87;;;24.12;57.17
35577;BME280;21680;52.400;16.920;2022-08-19T03:26:21;99975.50;;;24.12;57.20
35577;BME280;21680;52.400;16.920;2022-08-19T03:28:47;99978.06;;;24.09;57.19
35577;BME280;21680;52.400;16.920;2022-08-19T03:31:20;99970.53;;;24.03;57.27
35577;BME280;21680;52.400;16.920;2022-08-19T03:33:49;99981.14;;;24.02;57.31
35577;BME280;21680;52.400;16.920;2022-08-19T03:36:19;99978.39;;;23.98;57.38
35577;BME280;21680;52.400;16.920;2022-08-19T03:38:49;99977.36;;;23.95;57.50
35577;BME280;21680;52.400;16.920;2022-08-19T03:41:19;99975.99;;;23.95;57.53
35577;BME280;21680;52.400;16.920;2022-08-19T03:43:48;99980.78;;;23.93;57.57
35577;BME280;21680;52.400;16.920;2022-08-19T03:46:21;99978.72;;;23.91;57.62
35577;BME280;21680;52.400;16.920;2022-08-19T03:48:50;99982.47;;;23.86;57.62
35577;BME280;21680;52.400;16.920;2022-08-19T03:51:24;99975.28;;;23.81;57.70
35577;BME280;21680;52.400;16.920;2022-08-19T03:53:55;99977.31;;;23.75;57.81
35577;BME280;21680;52.400;16.920;2022-08-19T03:56:21;99985.18;;;23.74;57.91
35577;BME280;21680;52.400;16.920;2022-08-19T03:58:49;99982.09;;;23.73;58.00
35577;BME280;21680;52.400;16.920;2022-08-19T04:01:18;99983.64;;;23.71;58.07
35577;BME280;21680;52.400;16.920;2022-08-19T04:03:46;99986.03;;;23.70;58.09
35577;BME280;21680;52.400;16.920;2022-08-19T04:06:21;99981.05;;;23.66;58.18
35577;BME280;21680;52.400;16.920;2022-08-19T04:08:51;99984.81;;;23.64;58.22
35577;BME280;21680;52.400;16.920;2022-08-19T04:11:22;100000.88;;;23.63;58.27
35577;BME280;21680;52.400;16.920;2022-08-19T04:13:50;100004.98;;;23.63;58.41
35577;BME280;21680;52.400;16.920;2022-08-19T04:16:18;100001.56;;;23.61;58.34
35577;BME280;21680;52.400;16.920;2022-08-19T04:18:47;99998.48;;;23.60;58.36
35577;BME280;21680;52.400;16.920;2022-08-19T04:21:22;100001.73;;;23.60;58.42
35577;BME280;21680;52.400;16.920;2022-08-19T04:23:50;99994.03;;;23.59;58.48
35577;BME280;21680;52.400;16.920;2022-08-19T04:26:19;99988.91;;;23.60;58.51
35577;BME280;21680;52.400;16.920;2022-08-19T04:28:46;99976.40;;;23.54;58.55
35577;BME280;21680;52.400;16.920;2022-08-19T04:31:22;99976.08;;;23.61;58.60
35577;BME280;21680;52.400;16.920;2022-08-19T04:33:43;99982.73;;;23.58;58.62
35577;BME280;21680;52.400;16.920;2022-08-19T04:36:17;99985.13;;;23.57;58.65
35577;BME280;21680;52.400;16.920;2022-08-19T04:38:53;100007.88;;;23.58;58.73
35577;BME280;21680;52.400;16.920;2022-08-19T04:41:15;100017.28;;;23.59;58.76
35577;BME280;21680;52.400;16.920;2022-08-19T04:43:59;100015.23;;;23.61;58.79
35577;BME280;21680;52.400;16.920;2022-08-19T04:46:26;100016.09;;;23.62;58.82
35577;BME280;21680;52.400;16.920;2022-08-19T04:48:54;100018.50;;;23.65;58.89
35577;BME280;21680;52.400;16.920;2022-08-19T04:51:21;100020.05;;;23.68;58.90
35577;BME280;21680;52.400;16.920;2022-08-19T04:53:48;100008.25;;;23.67;58.84
35577;BME280;21680;52.400;16.920;2022-08-19T04:56:16;99999.86;;;23.64;58.92
35577;BME280;21680;52.400;16.920;2022-08-19T04:58:45;99988.57;;;23.63;58.91
35577;BME280;21680;52.400;16.920;2022-08-19T05:01:14;100003.97;;;23.64;58.99
35577;BME280;21680;52.400;16.920;2022-08-19T05:03:46;100022.95;;;23.66;59.08
35577;BME280;21680;52.400;16.920;2022-08-19T05:06:14;100021.94;;;23.71;59.09
35577;BME280;21680;52.400;16.920;2022-08-19T05:08:43;99998.35;;;23.74;59.00
35577;BME280;21680;52.400;16.920;2022-08-19T05:11:31;99996.62;;;23.69;58.96
35577;BME280;21680;52.400;16.920;2022-08-19T05:13:56;99997.12;;;23.64;59.12
35577;BME280;21680;52.400;16.920;2022-08-19T05:16:23;99992.86;;;23.66;59.19
35577;BME280;21680;52.400;16.920;2022-08-19T05:18:51;99993.20;;;23.67;59.19
35577;BME280;21680;52.400;16.920;2022-08-19T05:21:36;99988.58;;;23.68;59.22
35577;BME280;21680;52.400;16.920;2022-08-19T05:24:22;99984.83;;;23.69;59.26
35577;BME280;21680;52.400;16.920;2022-08-19T05:26:50;99984.98;;;23.67;59.23
35577;BME280;21680;52.400;16.920;2022-08-19T05:29:20;99980.20;;;23.69;59.29
35577;BME280;21680;52.400;16.920;2022-08-19T05:31:48;99972.01;;;23.73;59.31
35577;BME280;21680;52.400;16.920;2022-08-19T05:34:19;99984.50;;;23.76;59.35
35577;BME280;21680;52.400;16.920;2022-08-19T05:36:53;99987.93;;;23.78;59.32
35577;BME280;21680;52.400;16.920;2022-08-19T05:39:24;99980.07;;;23.83;59.35
35577;BME280;21680;52.400;16.920;2022-08-19T05:41:58;99977.01;;;23.90;59.38
35577;BME280;21680;52.400;16.920;2022-08-19T05:44:28;99975.30;;;23.93;59.34
35577;BME280;21680;52.400;16.920;2022-08-19T05:46:58;99973.25;;;23.95;59.27
35577;BME280;21680;52.400;16.920;2022-08-19T05:49:26;99977.53;;;23.98;59.29
35577;BME280;21680;52.400;16.920;2022-08-19T05:51:52;99977.38;;;24.03;59.32
35577;BME280;21680;52.400;16.920;2022-08-19T05:54:22;99966.09;;;24.10;59.30
35577;BME280;21680;52.400;16.920;2022-08-19T05:56:50;99961.64;;;24.13;59.21
35577;BME280;21680;52.400;16.920;2022-08-19T05:59:19;99952.39;;;24.10;59.17
35577;BME280;21680;52.400;16.920;2022-08-19T06:01:49;99953.25;;;24.11;59.18
35577;BME280;21680;52.400;16.920;2022-08-19T06:04:19;99950.00;;;24.15;59.19
35577;BME280;21680;52.400;16.920;2022-08-19T06:06:47;99953.25;;;24.19;59.17
35577;BME280;21680;52.400;16.920;2022-08-19T06:09:18;99966.95;;;24.23;59.12
35577;BME280;21680;52.400;16.920;2022-08-19T06:11:50;99976.56;;;24.27;59.11
35577;BME280;21680;52.400;16.920;2022-08-19T06:14:23;99979.66;;;24.32;59.09
35577;BME280;21680;52.400;16.920;2022-08-19T06:16:51;99981.70;;;24.38;59.06
35577;BME280;21680;52.400;16.920;2022-08-19T06:19:19;99969.03;;;24.41;59.00
35577;BME280;21680;52.400;16.920;2022-08-19T06:21:48;99970.41;;;24.45;58.96
35577;BME280;21680;52.400;16.920;2022-08-19T06:24:19;99961.33;;;24.49;58.96
35577;BME280;21680;52.400;16.920;2022-08-19T06:26:50;99967.14;;;24.54;58.87
35577;BME280;21680;52.400;16.920;2022-08-19T06:29:20;99963.37;;;24.59;58.86
35577;BME280;21680;52.400;16.920;2022-08-19T06:31:52;99962.68;;;24.65;58.83
35577;BME280;21680;52.400;16.920;2022-08-19T06:34:19;99960.27;;;24.70;58.78
35577;BME280;21680;52.400;16.920;2022-08-19T06:36:50;99958.03;;;24.78;58.76
35577;BME280;21680;52.400;16.920;2022-08-19T06:39:21;99957.00;;;24.83;58.66
35577;BME280;21680;52.400;16.920;2022-08-19T06:41:51;99954.92;;;24.89;58.63
35577;BME280;21680;52.400;16.920;2022-08-19T06:44:19;99953.03;;;24.93;58.49
35577;BME280;21680;52.400;16.920;2022-08-19T06:46:47;99949.97;;;24.97;58.47
35577;BME280;21680;52.400;16.920;2022-08-19T06:49:16;99954.23;;;25.03;58.43
35577;BME280;21680;52.400;16.920;2022-08-19T06:51:47;99967.08;;;25.07;58.35
35577;BME280;21680;52.400;16.920;2022-08-19T06:54:15;99973.75;;;25.08;58.21
35577;BME280;21680;52.400;16.920;2022-08-19T06:56:43;99977.86;;;25.12;58.21
35577;BME280;21680;52.400;16.920;2022-08-19T06:59:13;99975.95;;;25.17;58.18
35577;BME280;21680;52.400;16.920;2022-08-19T07:01:44;99981.41;;;25.25;58.14
35577;BME280;21680;52.400;16.920;2022-08-19T07:04:14;99973.33;;;25.32;58.06
35577;BME280;21680;52.400;16.920;2022-08-19T07:06:43;99973.81;;;25.39;57.99
35577;BME280;21680;52.400;16.920;2022-08-19T07:09:13;99977.87;;;25.51;58.03
35577;BME280;21680;52.400;16.920;2022-08-19T07:11:45;99979.71;;;25.67;57.90
35577;BME280;21680;52.400;16.920;2022-08-19T07:14:13;99980.66;;;25.82;57.70
35577;BME280;21680;52.400;16.920;2022-08-19T07:16:41;99993.63;;;25.93;57.47
35577;BME280;21680;52.400;16.920;2022-08-19T07:19:07;99989.67;;;25.95;57.27
35577;BME280;21680;52.400;16.920;2022-08-19T07:21:33;100004.93;;;25.98;57.12
35577;BME280;21680;52.400;16.920;2022-08-19T07:23:59;100009.33;;;26.03;57.12
35577;BME280;21680;52.400;16.920;2022-08-19T07:26:31;100006.02;;;26.11;56.96
35577;BME280;21680;52.400;16.920;2022-08-19T07:28:59;100009.70;;;26.23;56.87
35577;BME280;21680;52.400;16.920;2022-08-19T07:31:27;100013.44;;;26.30;56.70
35577;BME280;21680;52.400;16.920;2022-08-19T07:33:55;100015.11;;;26.39;56.57
35577;BME280;21680;52.400;16.920;2022-08-19T07:36:26;100018.32;;;26.46;56.45
35577;BME280;21680;52.400;16.920;2022-08-19T07:38:55;100022.34;;;26.59;56.30
35577;BME280;21680;52.400;16.920;2022-08-19T07:41:22;100015.91;;;26.66;56.09
35577;BME280;21680;52.400;16.920;2022-08-19T07:43:50;100027.92;;;26.69;55.94
35577;BME280;21680;52.400;16.920;2022-08-19T07:46:18;100029.96;;;26.71;55.79
35577;BME280;21680;52.400;16.920;2022-08-19T07:48:47;100037.13;;;26.76;55.70
35577;BME280;21680;52.400;16.920;2022-08-19T07:51:18;100036.73;;;26.83;55.61
35577;BME280;21680;52.400;16.920;2022-08-19T07:53:47;100039.92;;;26.91;55.48
35577;BME280;21680;52.400;16.920;2022-08-19T07:56:18;100027.68;;;26.98;55.39
35577;BME280;21680;52.400;16.920;2022-08-19T07:58:47;100026.08;;;27.03;55.21
35577;BME280;21680;52.400;16.920;2022-08-19T08:01:18;100023.43;;;27.10;55.07
35577;BME280;21680;52.400;16.920;2022-08-19T08:03:46;100018.03;;;27.16;55.01
35577;BME280;21680;52.400;16.920;2022-08-19T08:06:31;100027.42;;;27.22;54.87
35577;BME280;21680;52.400;16.920;2022-08-19T08:09:18;100016.66;;;27.31;54.76
35577;BME280;21680;52.400;16.920;2022-08-19T08:12:00;100015.05;;;27.37;54.55
35577;BME280;21680;52.400;16.920;2022-08-19T08:14:28;100011.53;;;27.43;54.49
35577;BME280;21680;52.400;16.920;2022-08-19T08:16:56;100010.95;;;27.47;54.35
35577;BME280;21680;52.400;16.920;2022-08-19T08:19:24;100007.77;;;27.55;54.28
35577;BME280;21680;52.400;16.920;2022-08-19T08:21:55;100004.62;;;27.62;54.17
35577;BME280;21680;52.400;16.920;2022-08-19T08:24:29;99998.53;;;27.66;54.00
35577;BME280;21680;52.400;16.920;2022-08-19T08:26:52;100010.63;;;27.76;53.95
35577;BME280;21680;52.400;16.920;2022-08-19T08:29:19;100006.37;;;27.84;53.83
35577;BME280;21680;52.400;16.920;2022-08-19T08:31:46;100011.44;;;27.91;53.71
35577;BME280;21680;52.400;16.920;2022-08-19T08:34:13;100005.81;;;27.99;53.58
35577;BME280;21680;52.400;16.920;2022-08-19T08:36:43;100013.44;;;28.08;53.49
35577;BME280;21680;52.400;16.920;2022-08-19T08:39:16;100012.46;;;28.16;53.31
35577;BME280;21680;52.400;16.920;2022-08-19T08:47:34;100026.29;;;28.37;52.98
35577;BME280;21680;52.400;16.920;2022-08-19T08:50:13;100025.50;;;28.43;52.80
35577;BME280;21680;52.400;16.920;2022-08-19T08:52:47;100028.45;;;28.52;52.72
35577;BME280;21680;52.400;16.920;2022-08-19T08:55:17;100030.30;;;28.56;52.49
35577;BME280;21680;52.400;16.920;2022-08-19T08:58:00;100035.21;;;28.60;52.42
35577;BME280;21680;52.400;16.920;2022-08-19T09:00:33;100033.20;;;28.65;52.29
35577;BME280;21680;52.400;16.920;2022-08-19T09:03:03;100026.05;;;28.70;52.21
35577;BME280;21680;52.400;16.920;2022-08-19T09:05:42;100023.34;;;28.77;52.11
35577;BME280;21680;52.400;16.920;2022-08-19T09:11:04;100024.00;;;28.79;51.83
35577;BME280;21680;52.400;16.920;2022-08-19T09:16:27;100017.31;;;28.88;51.51
35577;BME280;21680;52.400;16.920;2022-08-19T09:18:56;100020.78;;;28.97;51.45
35577;BME280;21680;52.400;16.920;2022-08-19T09:21:25;100018.39;;;29.04;51.25
35577;BME280;21680;52.400;16.920;2022-08-19T09:23:53;100025.34;;;29.11;51.15
35577;BME280;21680;52.400;16.920;2022-08-19T09:26:22;100021.13;;;29.15;51.03
35577;BME280;21680;52.400;16.920;2022-08-19T09:28:50;100016.25;;;29.17;50.86
35577;BME280;21680;52.400;16.920;2022-08-19T09:31:21;100019.59;;;29.23;50.72
35577;BME280;21680;52.400;16.920;2022-08-19T09:33:49;100013.45;;;29.28;50.61
35577;BME280;21680;52.400;16.920;2022-08-19T09:36:19;100026.97;;;29.33;50.41
35577;BME280;21680;52.400;16.920;2022-08-19T09:38:47;100026.31;;;29.42;50.26
35577;BME280;21680;52.400;16.920;2022-08-19T09:41:16;100016.16;;;29.49;50.11
35577;BME280;21680;52.400;16.920;2022-08-19T09:43:45;100024.16;;;29.55;49.95
35577;BME280;21680;52.400;16.920;2022-08-19T09:46:12;100020.78;;;29.59;49.90
35577;BME280;21680;52.400;16.920;2022-08-19T09:48:40;100014.44;;;29.65;49.67
35577;BME280;21680;52.400;16.920;2022-08-19T09:51:09;100007.86;;;29.66;49.52
35577;BME280;21680;52.400;16.920;2022-08-19T09:53:37;100003.42;;;29.72;49.26
35577;BME280;21680;52.400;16.920;2022-08-19T09:56:05;100003.21;;;29.73;49.20
35577;BME280;21680;52.400;16.920;2022-08-19T09:58:33;100012.47;;;29.77;49.12
35577;BME280;21680;52.400;16.920;2022-08-19T10:01:00;100012.59;;;29.79;49.07
35577;BME280;21680;52.400;16.920;2022-08-19T10:03:28;100009.20;;;29.84;48.90
35577;BME280;21680;52.400;16.920;2022-08-19T10:05:57;100015.49;;;29.88;48.31
35577;BME280;21680;52.400;16.920;2022-08-19T10:08:32;100013.70;;;29.91;48.11
35577;BME280;21680;52.400;16.920;2022-08-19T10:10:56;100021.74;;;30.03;47.91
35577;BME280;21680;52.400;16.920;2022-08-19T10:13:24;100013.05;;;30.13;47.48
35577;BME280;21680;52.400;16.920;2022-08-19T10:15:53;100010.82;;;30.13;47.06
35577;BME280;21680;52.400;16.920;2022-08-19T10:18:22;100006.26;;;30.16;47.06
35577;BME280;21680;52.400;16.920;2022-08-19T10:20:51;100002.77;;;30.24;46.88
35577;BME280;21680;52.400;16.920;2022-08-19T10:23:20;99992.79;;;30.36;46.70
35577;BME280;21680;52.400;16.920;2022-08-19T10:25:47;99985.03;;;30.43;46.54
35577;BME280;21680;52.400;16.920;2022-08-19T10:28:14;99970.78;;;30.39;46.24
35577;BME280;21680;52.400;16.920;2022-08-19T10:30:41;99965.36;;;30.42;46.27
35577;BME280;21680;52.400;16.920;2022-08-19T10:33:07;99962.17;;;30.51;46.21
35577;BME280;21680;52.400;16.920;2022-08-19T10:35:33;99974.83;;;30.56;45.93
35577;BME280;21680;52.400;16.920;2022-08-19T10:37:59;99973.48;;;30.63;45.59
35577;BME280;21680;52.400;16.920;2022-08-19T10:40:27;99964.55;;;30.67;45.27
35577;BME280;21680;52.400;16.920;2022-08-19T10:42:54;99958.91;;;30.72;45.32
35577;BME280;21680;52.400;16.920;2022-08-19T10:45:22;99957.62;;;30.81;45.23
35577;BME280;21680;52.400;16.920;2022-08-19T10:47:50;99965.06;;;30.87;45.13
35577;BME280;21680;52.400;16.920;2022-08-19T10:50:18;99962.50;;;30.92;44.98
35577;BME280;21680;52.400;16.920;2022-08-19T10:53:05;99971.53;;;31.03;44.89
35577;BME280;21680;52.400;16.920;2022-08-19T10:55:34;99975.48;;;31.18;44.83
35577;BME280;21680;52.400;16.920;2022-08-19T10:58:20;99981.48;;;31.30;44.57
35577;BME280;21680;52.400;16.920;2022-08-19T11:00:58;99979.64;;;31.40;44.33
35577;BME280;21680;52.400;16.920;2022-08-19T11:03:26;99980.03;;;31.50;44.09
35577;BME280;21680;52.400;16.920;2022-08-19T11:05:59;99983.29;;;31.63;43.92
35577;BME280;21680;52.400;16.920;2022-08-19T11:08:25;99965.47;;;31.68;43.46
35577;BME280;21680;52.400;16.920;2022-08-19T11:10:53;99969.44;;;31.70;43.30
35577;BME280;21680;52.400;16.920;2022-08-19T11:13:22;99971.02;;;31.68;42.75
35577;BME280;21680;52.400;16.920;2022-08-19T11:16:10;99978.92;;;31.71;42.76
35577;BME280;21680;52.400;16.920;2022-08-19T11:18:45;99972.94;;;31.74;42.71
35577;BME280;21680;52.400;16.920;2022-08-19T11:21:12;99974.06;;;31.82;42.36
35577;BME280;21680;52.400;16.920;2022-08-19T11:23:43;99974.26;;;31.87;42.20
35577;BME280;21680;52.400;16.920;2022-08-19T11:26:10;99961.81;;;31.81;41.98
35577;BME280;21680;52.400;16.920;2022-08-19T11:28:36;99964.15;;;31.84;41.97
35577;BME280;21680;52.400;16.920;2022-08-19T11:31:03;99980.17;;;31.98;41.73
35577;BME280;21680;52.400;16.920;2022-08-19T11:33:30;99978.70;;;32.11;41.60
35577;BME280;21680;52.400;16.920;2022-08-19T11:35:58;99990.08;;;32.18;41.37
35577;BME280;21680;52.400;16.920;2022-08-19T11:38:26;99987.38;;;32.27;41.24
35577;BME280;21680;52.400;16.920;2022-08-19T11:40:58;99990.38;;;32.26;41.06
35577;BME280;21680;52.400;16.920;2022-08-19T11:43:25;99988.72;;;32.34;41.22
35577;BME280;21680;52.400;16.920;2022-08-19T11:45:55;99990.95;;;32.50;41.10
35577;BME280;21680;52.400;16.920;2022-08-19T11:48:21;100001.28;;;32.52;40.85
35577;BME280;21680;52.400;16.920;2022-08-19T11:50:49;99997.66;;;32.52;40.92
35577;BME280;21680;52.400;16.920;2022-08-19T11:53:19;99998.86;;;32.63;40.85
35577;BME280;21680;52.400;16.920;2022-08-19T11:55:47;99997.42;;;32.69;40.57
35577;BME280;21680;52.400;16.920;2022-08-19T11:58:14;99995.80;;;32.71;40.42
35577;BME280;21680;52.400;16.920;2022-08-19T12:00:43;99993.97;;;32.74;40.51
35577;BME280;21680;52.400;16.920;2022-08-19T12:03:11;99997.28;;;32.73;40.35
35577;BME280;21680;52.400;16.920;2022-08-19T12:05:39;100000.52;;;32.86;40.40
35577;BME280;21680;52.400;16.920;2022-08-19T12:08:07;100003.95;;;33.06;40.28
35577;BME280;21680;52.400;16.920;2022-08-19T12:10:34;100001.52;;;33.26;40.19
35577;BME280;21680;52.400;16.920;2022-08-19T12:13:00;100001.41;;;33.48;40.11
35577;BME280;21680;52.400;16.920;2022-08-19T12:15:27;100000.17;;;33.62;39.50
35577;BME280;21680;52.400;16.920;2022-08-19T12:17:56;100007.50;;;33.57;39.28
35577;BME280;21680;52.400;16.920;2022-08-19T12:20:23;100006.19;;;33.32;38.86
35577;BME280;21680;52.400;16.920;2022-08-19T12:22:50;100014.00;;;33.16;38.94
35577;BME280;21680;52.400;16.920;2022-08-19T12:25:17;100002.13;;;33.18;39.04
35577;BME280;21680;52.400;16.920;2022-08-19T12:27:42;100004.03;;;33.43;39.01
35577;BME280;21680;52.400;16.920;2022-08-19T12:30:11;100010.52;;;33.64;38.84
35577;BME280;21680;52.400;16.920;2022-08-19T12:32:38;100014.20;;;33.85;38.63
35577;BME280;21680;52.400;16.920;2022-08-19T12:35:06;100015.23;;;34.12;38.54
35577;BME280;21680;52.400;16.920;2022-08-19T12:37:35;100024.19;;;34.32;38.35
35577;BME280;21680;52.400;16.920;2022-08-19T12:40:03;100021.32;;;34.20;37.42
35577;BME280;21680;52.400;16.920;2022-08-19T12:42:29;100027.16;;;34.01;37.68
35577;BME280;21680;52.400;16.920;2022-08-19T12:44:56;100024.07;;;34.00;37.82
35577;BME280;21680;52.400;16.920;2022-08-19T12:47:21;100034.73;;;33.94;37.68
35577;BME280;21680;52.400;16.920;2022-08-19T12:49:48;100025.11;;;33.50;37.51
35577;BME280;21680;52.400;16.920;2022-08-19T12:52:15;100023.55;;;33.11;37.94
35577;BME280;21680;52.400;16.920;2022-08-19T12:54:42;100021.55;;;32.69;38.56
35577;BME280;21680;52.400;16.920;2022-08-19T12:57:09;100023.93;;;32.49;38.94
35577;BME280;21680;52.400;16.920;2022-08-19T12:59:37;100032.44;;;32.39;39.42
35577;BME280;21680;52.400;16.920;2022-08-19T13:02:06;100018.07;;;32.33;39.50
35577;BME280;21680;52.400;16.920;2022-08-19T13:04:33;100025.45;;;32.30;39.90
35577;BME280;21680;52.400;16.920;2022-08-19T13:07:02;100027.55;;;32.66;40.23